Time;durP1;ratioP1;P1;durP2;ratioP2;P2;SDS_P1;SDS_P2;PMS_P1;PMS_P2;Temp;Humidity;BMP_temperature;BMP_pressure;BME280_temperature;BME280_humidity;BME280_pressure;Samples;Min_cycle;Max_cycle;Signal;HPM_P1;HPM_P2
2021/11/24 00:00:48;;;;;;;5.10;4.33;;;;;;;-1.23;80.17;100588.34;5116778;28;20617;-69
2021/11/24 00:03:14;;;;;;;6.50;4.50;;;;;;;-1.17;80.37;100593.19;5098200;28;20035;-70
2021/11/24 00:05:40;;;;;;;7.87;4.80;;;;;;;-1.11;80.20;100598.09;5098521;28;20635;-70
2021/11/24 00:08:06;;;;;;;5.77;4.80;;;;;;;-1.05;80.12;100596.88;5098518;28;20036;-68
2021/11/24 00:10:34;;;;;;;5.57;4.73;;;;;;;-1.09;79.59;100569.25;5097960;28;20273;-70
2021/11/24 00:13:05;;;;;;;5.00;4.17;;;;;;;-1.08;79.61;100563.91;5117051;28;20287;-67
2021/11/24 00:15:31;;;;;;;5.37;4.77;;;;;;;-1.19;79.85;100555.88;5116624;28;20682;-71
2021/11/24 00:17:57;;;;;;;5.77;4.37;;;;;;;-1.16;80.22;100568.75;5117253;28;20714;-69
2021/11/24 00:20:23;;;;;;;5.30;4.20;;;;;;;-1.18;79.80;100568.00;5116169;28;20301;-67
2021/11/24 00:22:49;;;;;;;5.97;4.23;;;;;;;-1.17;79.99;100550.53;5115941;28;20039;-69
2021/11/24 00:25:15;;;;;;;7.40;5.23;;;;;;;-1.11;80.40;100551.03;5115977;28;20118;-69
2021/11/24 00:27:40;;;;;;;7.57;5.73;;;;;;;-1.19;80.42;100537.56;5097552;28;20040;-68
2021/11/24 00:30:07;;;;;;;7.43;5.10;;;;;;;-1.33;80.31;100503.63;5081345;28;20127;-68
2021/11/24 00:32:33;;;;;;;6.77;6.13;;;;;;;-1.18;79.87;100518.34;5097605;28;20168;-69
2021/11/24 00:35:00;;;;;;;6.93;5.37;;;;;;;-1.12;79.95;100519.78;5115992;28;20257;-71
2021/11/24 00:37:28;;;;;;;6.00;4.50;;;;;;;-1.15;80.19;100512.13;5115822;28;20602;-67
2021/11/24 00:39:54;;;;;;;6.10;4.10;;;;;;;-1.13;79.73;100505.88;5115914;28;20266;-70
2021/11/24 00:42:20;;;;;;;5.90;4.90;;;;;;;-1.17;79.81;100485.22;5116593;28;20775;-67
2021/11/24 00:44:45;;;;;;;6.97;5.17;;;;;;;-1.13;79.54;100490.19;5116724;28;20311;-69
2021/11/24 00:47:11;;;;;;;7.20;5.60;;;;;;;-1.33;79.66;100448.75;5098533;28;20024;-68
2021/11/24 00:49:40;;;;;;;5.10;4.60;;;;;;;-1.14;79.64;100472.00;5117469;28;20646;-68
2021/11/24 00:52:09;;;;;;;8.70;4.68;;;;;;;-1.16;79.08;100459.00;5117264;28;20036;-66
2021/11/24 00:54:35;;;;;;;5.37;4.77;;;;;;;-1.13;79.30;100440.53;5116663;28;20126;-69
2021/11/24 00:57:01;;;;;;;6.43;5.17;;;;;;;-1.01;79.10;100446.75;5116284;28;20778;-64
2021/11/24 00:59:27;;;;;;;7.00;5.27;;;;;;;-1.07;79.02;100427.06;5099120;28;20388;-69
2021/11/24 01:01:53;;;;;;;6.00;5.20;;;;;;;-0.99;79.21;100437.88;5098800;28;20093;-67
2021/11/24 01:04:18;;;;;;;5.73;4.67;;;;;;;-1.04;78.90;100411.19;5117038;28;20036;-67
2021/11/24 01:06:44;;;;;;;5.53;4.90;;;;;;;-1.10;79.11;100403.75;5117130;28;20114;-67
2021/11/24 01:09:10;;;;;;;8.23;5.07;;;;;;;-1.07;78.96;100421.84;5118733;28;20104;-68
2021/11/24 01:11:37;;;;;;;7.13;5.20;;;;;;;-1.19;78.91;100400.88;5117819;28;20077;-68
2021/11/24 01:14:28;;;;;;;5.60;5.07;;;;;;;-1.07;79.11;100416.63;5115687;28;20055;-69
2021/11/24 01:16:54;;;;;;;8.73;5.30;;;;;;;-1.10;78.89;100395.91;5115484;28;20273;-69
2021/11/24 01:19:19;;;;;;;9.37;6.10;;;;;;;-1.21;78.96;100385.28;5117033;28;20401;-68
2021/11/24 01:21:46;;;;;;;8.87;5.53;;;;;;;-1.19;79.60;100380.78;5116332;28;20569;-66
2021/11/24 01:24:12;;;;;;;7.83;5.57;;;;;;;-1.24;79.35;100361.97;5098428;28;20043;-67
2021/11/24 01:26:38;;;;;;;9.53;5.80;;;;;;;-1.08;79.01;100375.75;5116573;28;20312;-67
2021/11/24 01:29:04;;;;;;;8.43;5.50;;;;;;;-1.04;79.09;100377.22;5115829;28;20269;-67
2021/11/24 01:31:30;;;;;;;7.80;4.60;;;;;;;-1.06;79.41;100363.41;5117041;28;20628;-69
2021/11/24 01:33:55;;;;;;;6.63;5.20;;;;;;;-1.08;79.29;100352.22;5115631;28;20032;-68
2021/11/24 01:36:21;;;;;;;6.60;4.90;;;;;;;-1.04;79.43;100356.31;5115548;28;20479;-66
2021/11/24 01:38:47;;;;;;;13.67;5.37;;;;;;;-1.04;79.14;100343.25;5114964;28;20185;-68
2021/11/24 01:41:14;;;;;;;9.23;5.33;;;;;;;-1.04;78.90;100348.47;5115015;28;20541;-67
2021/11/24 01:43:39;;;;;;;6.03;5.43;;;;;;;-1.07;79.07;100332.16;5096705;28;20063;-66
2021/11/24 01:46:05;;;;;;;6.10;5.27;;;;;;;-1.09;79.43;100329.66;5096621;28;20736;-67
2021/11/24 01:48:31;;;;;;;7.63;5.63;;;;;;;-1.12;78.98;100313.31;5114605;28;20062;-66
2021/11/24 01:51:00;;;;;;;6.27;5.60;;;;;;;-1.05;79.22;100307.59;5114830;28;20508;-66
2021/11/24 01:53:27;;;;;;;9.90;6.07;;;;;;;-1.07;80.17;100306.84;5097026;28;20261;-66
2021/11/24 01:55:55;;;;;;;8.23;5.80;;;;;;;-1.13;79.99;100307.25;5114408;28;20044;-68
2021/11/24 01:58:23;;;;;;;7.22;6.20;;;;;;;-1.21;80.13;100269.47;5114294;28;20280;-68
2021/11/24 02:00:49;;;;;;;7.05;5.72;;;;;;;-1.20;80.09;100253.69;5114183;28;20473;-67
2021/11/24 02:03:15;;;;;;;9.57;7.60;;;;;;;-1.08;80.25;100273.00;5114332;28;20476;-66
2021/11/24 02:05:41;;;;;;;13.77;6.33;;;;;;;-1.12;80.16;100256.69;5114543;28;20265;-67
2021/11/24 02:08:07;;;;;;;8.10;7.13;;;;;;;-1.14;80.32;100242.03;5114380;28;20498;-67
2021/11/24 02:10:32;;;;;;;7.63;6.53;;;;;;;-1.06;80.58;100245.81;5114355;28;20383;-67
2021/11/24 02:12:58;;;;;;;8.13;6.70;;;;;;;-1.12;80.85;100232.31;5114267;28;20056;-67
2021/11/24 02:15:24;;;;;;;7.40;6.07;;;;;;;-1.31;82.12;100196.09;5114335;28;20051;-68
2021/11/24 02:17:51;;;;;;;9.70;6.90;;;;;;;-1.14;82.53;100215.91;5113817;28;20265;-67
2021/11/24 02:20:38;;;;;;;8.70;6.60;;;;;;;-1.17;82.23;100187.34;5095708;28;20477;-67
2021/11/24 02:23:06;;;;;;;5.77;5.00;;;;;;;-1.08;82.51;100198.03;5113047;28;20354;-66
2021/11/24 02:25:31;;;;;;;9.13;6.47;;;;;;;-1.13;82.19;100171.38;5113751;28;20277;-68
2021/11/24 02:27:57;;;;;;;7.83;5.67;;;;;;;-1.07;82.32;100172.75;5095532;28;20266;-67
2021/11/24 02:30:23;;;;;;;6.23;5.20;;;;;;;-1.20;82.63;100143.97;5114080;28;20421;-66
2021/11/24 02:32:48;;;;;;;6.67;5.97;;;;;;;-1.09;82.99;100159.78;5097867;28;20475;-67
2021/11/24 02:35:14;;;;;;;7.13;5.37;;;;;;;-1.08;83.08;100145.78;5116581;28;20130;-66
2021/11/24 02:37:40;;;;;;;8.10;6.43;;;;;;;-1.10;83.37;100142.44;5099783;28;20034;-68
2021/11/24 02:40:06;;;;;;;6.70;4.67;;;;;;;-1.12;84.27;100130.41;5117762;28;20032;-67
2021/11/24 02:42:32;;;;;;;6.80;5.20;;;;;;;-1.20;84.88;100106.56;5117246;28;20118;-68
2021/11/24 02:44:57;;;;;;;6.20;5.13;;;;;;;-1.15;84.24;100110.56;5082830;28;20786;-66
2021/11/24 02:47:25;;;;;;;6.37;5.50;;;;;;;-1.19;84.70;100096.00;5083256;28;20031;-68
2021/11/24 02:49:54;;;;;;;6.23;4.57;;;;;;;-1.62;85.38;100007.50;5115917;28;20060;-66
2021/11/24 02:52:20;;;;;;;;;;;;;;;-1.16;84.67;100074.88;5117131;28;20365;-67
2021/11/24 02:54:51;;;;;;;6.70;3.70;;;;;;;-1.47;85.51;100030.88;5116514;28;19916;-67
2021/11/24 02:57:17;;;;;;;5.73;4.83;;;;;;;-1.28;85.58;100044.38;5116479;28;20266;-66
2021/11/24 02:59:42;;;;;;;5.00;4.23;;;;;;;-1.28;85.62;100047.00;5119480;28;20322;-67
2021/11/24 03:02:08;;;;;;;4.93;3.53;;;;;;;-1.35;86.43;100027.47;5119689;28;20482;-70
2021/11/24 03:04:34;;;;;;;5.17;4.67;;;;;;;-1.50;87.72;99989.31;5115448;28;20097;-66
2021/11/24 03:07:02;;;;;;;5.70;5.03;;;;;;;-1.81;87.99;99948.78;5114120;28;20032;-67
2021/11/24 03:09:27;;;;;;;5.72;4.15;;;;;;;-1.46;88.43;99991.59;5113624;28;20383;-68
2021/11/24 03:11:55;;;;;;;5.93;4.57;;;;;;;-1.45;88.58;99992.44;5113432;28;20061;-69
2021/11/24 03:14:21;;;;;;;5.37;4.10;;;;;;;-1.43;88.98;99975.75;5113362;28;20035;-68
2021/11/24 03:16:47;;;;;;;4.27;3.87;;;;;;;-1.40;88.68;99987.78;5113048;28;20807;-68
2021/11/24 03:19:13;;;;;;;5.57;4.07;;;;;;;-1.39;88.74;99931.97;5113228;28;20280;-69
2021/11/24 03:21:39;;;;;;;3.40;3.10;;;;;;;-1.47;88.63;99944.72;5095175;28;20289;-69
2021/11/24 03:24:05;;;;;;;7.43;4.90;;;;;;;-1.26;87.99;99938.00;5114300;28;20261;-70
2021/11/24 03:26:32;;;;;;;3.40;3.00;;;;;;;-1.28;88.18;99942.50;5097936;28;20398;-70
2021/11/24 03:28:58;;;;;;;5.30;3.63;;;;;;;-1.36;88.32;99918.69;5096576;28;20330;-69
2021/11/24 03:31:23;;;;;;;6.80;4.17;;;;;;;-1.29;88.53;99914.72;5113751;28;20273;-68
2021/11/24 03:33:49;;;;;;;3.77;3.30;;;;;;;-1.26;88.91;99911.88;5095477;28;20643;-68
2021/11/24 03:36:15;;;;;;;7.17;3.50;;;;;;;-1.24;88.54;99910.00;5113034;28;20042;-68
2021/11/24 03:38:41;;;;;;;5.37;3.43;;;;;;;-1.25;88.49;99880.41;5112758;28;20112;-69
2021/11/24 03:41:07;;;;;;;5.63;3.07;;;;;;;-1.41;88.06;99860.75;5112638;28;20268;-68
2021/11/24 03:43:33;;;;;;;3.70;3.40;;;;;;;-1.31;88.27;99873.03;5094104;28;20652;-70
2021/11/24 03:45:58;;;;;;;3.30;2.80;;;;;;;-1.25;88.21;99869.13;5094629;28;20032;-68
2021/11/24 03:48:27;;;;;;;5.93;3.40;;;;;;;-1.29;88.05;99846.78;5112248;28;20118;-70
2021/11/24 03:50:56;;;;;;;3.83;3.13;;;;;;;-1.32;88.31;99834.78;5112655;28;20036;-67
2021/11/24 03:53:22;;;;;;;5.07;2.97;;;;;;;-1.18;88.65;99852.06;5112629;28;20269;-66
2021/11/24 03:55:47;;;;;;;4.77;3.63;;;;;;;-1.17;88.58;99835.44;5112469;28;20058;-68
2021/11/24 03:58:13;;;;;;;2.93;2.73;;;;;;;-1.07;88.65;99836.47;5112109;28;20073;-68
2021/11/24 04:00:39;;;;;;;6.93;3.60;;;;;;;-1.10;88.49;99821.03;5112617;28;20027;-64
2021/11/24 04:03:05;;;;;;;7.93;2.80;;;;;;;-1.00;88.50;99815.94;5094265;28;20107;-65
2021/11/24 04:05:31;;;;;;;3.83;2.97;;;;;;;-0.90;88.81;99816.09;5112323;28;20043;-65
2021/11/24 04:07:56;;;;;;;6.47;2.93;;;;;;;-0.87;88.21;99826.31;5093933;28;20266;-65
2021/11/24 04:10:22;;;;;;;10.47;3.23;;;;;;;-0.82;87.81;99814.59;5093628;28;20084;-65
2021/11/24 04:12:48;;;;;;;3.63;2.70;;;;;;;-0.88;87.48;99798.53;5112322;28;20046;-65
2021/11/24 04:15:16;;;;;;;2.70;2.40;;;;;;;-0.78;87.25;99799.53;5094138;28;20474;-66
2021/11/24 04:17:44;;;;;;;2.28;2.08;;;;;;;-1.22;87.11;99714.78;5112127;28;20048;-66
2021/11/24 04:20:12;;;;;;;3.67;2.87;;;;;;;-0.71;87.07;99785.03;5112493;28;20415;-66
2021/11/24 04:22:38;;;;;;;2.75;2.55;;;;;;;-0.76;86.60;99776.72;5112180;28;20378;-65
2021/11/24 04:25:05;;;;;;;2.57;2.37;;;;;;;-0.90;86.91;99732.47;5111994;28;20482;-65
2021/11/24 04:27:31;;;;;;;8.30;2.57;;;;;;;-0.64;86.67;99749.63;5077366;28;20041;-67
2021/11/24 04:29:56;;;;;;;3.57;2.70;;;;;;;-0.56;86.27;99757.75;5112453;28;20265;-66
2021/11/24 04:32:24;;;;;;;4.80;2.97;;;;;;;-0.52;85.66;99758.34;5112332;28;20036;-66
2021/11/24 04:34:50;;;;;;;3.40;2.40;;;;;;;-0.48;86.05;99734.44;5112152;28;20039;-65
2021/11/24 04:37:16;;;;;;;4.37;3.33;;;;;;;-0.55;86.02;99706.28;5111983;28;20321;-66
2021/11/24 04:39:42;;;;;;;7.20;2.40;;;;;;;-0.53;85.31;99684.28;5112199;28;20253;-65
2021/11/24 04:42:08;;;;;;;3.00;2.70;;;;;;;-0.46;85.64;99674.19;5112447;28;20066;-63
2021/11/24 04:44:34;;;;;;;3.03;2.73;;;;;;;-0.37;85.12;99692.59;5111892;28;20258;-67
2021/11/24 04:46:59;;;;;;;2.83;2.03;;;;;;;-0.34;85.29;99686.28;5114973;28;20276;-64
2021/11/24 04:49:26;;;;;;;4.07;2.43;;;;;;;-0.26;85.56;99685.72;5097168;28;20056;-66
2021/11/24 04:51:53;;;;;;;3.13;2.53;;;;;;;-0.24;85.33;99678.56;5115066;28;20536;-71
2021/11/24 04:54:19;;;;;;;2.77;2.47;;;;;;;-0.31;85.51;99673.78;5115798;28;20051;-71
2021/11/24 04:56:44;;;;;;;2.20;2.00;;;;;;;-0.25;85.40;99661.22;5115333;28;20035;-71
2021/11/24 04:59:10;;;;;;;5.27;2.00;;;;;;;-0.19;85.55;99655.50;5115171;28;20031;-67
2021/11/24 05:01:35;;;;;;;2.60;1.70;;;;;;;-0.14;85.83;99663.81;5114808;28;20035;-65
2021/11/24 05:04:01;;;;;;;3.23;2.27;;;;;;;-0.24;85.76;99648.00;5114823;28;20116;-66
2021/11/24 05:06:27;;;;;;;2.70;2.10;;;;;;;-0.10;85.53;99633.81;5114818;28;20104;-66
2021/11/24 05:08:52;;;;;;;1.90;1.70;;;;;;;-0.08;85.77;99617.03;5096394;28;20076;-65
2021/11/24 05:11:19;;;;;;;3.97;1.60;;;;;;;0.02;85.68;99627.63;5080172;28;20038;-66
2021/11/24 05:13:58;;;;;;;3.60;1.50;;;;;;;0.08;84.98;99627.13;5097131;28;20032;-66
2021/11/24 05:16:29;;;;;;;3.23;1.43;;;;;;;0.10;85.11;99609.50;5115508;28;20258;-65
2021/11/24 05:19:20;;;;;;;2.30;1.70;;;;;;;0.10;85.52;99598.19;5115959;28;20265;-65
2021/11/24 05:21:54;;;;;;;5.70;1.60;;;;;;;0.13;85.53;99592.72;5114899;28;20285;-66
2021/11/24 05:24:20;;;;;;;1.70;1.60;;;;;;;0.22;85.65;99618.13;5096621;28;20362;-65
2021/11/24 05:26:47;;;;;;;1.73;1.50;;;;;;;0.23;86.27;99610.16;5096555;28;20384;-65
2021/11/24 05:29:13;;;;;;;2.90;1.60;;;;;;;0.17;86.37;99589.72;5114906;28;20035;-65
2021/11/24 05:31:39;;;;;;;2.27;1.60;;;;;;;0.24;86.47;99611.81;5114172;28;20280;-66
2021/11/24 05:34:05;;;;;;;2.37;2.17;;;;;;;0.30;86.50;99606.09;5114843;28;20269;-66
2021/11/24 05:36:30;;;;;;;2.00;1.80;;;;;;;0.35;87.11;99616.19;5096363;28;20266;-66
2021/11/24 05:38:56;;;;;;;1.57;1.47;;;;;;;0.30;87.12;99618.38;5096170;28;20054;-67
2021/11/24 05:41:22;;;;;;;3.40;1.83;;;;;;;0.39;87.54;99619.38;5095958;28;20039;-64
2021/11/24 05:43:51;;;;;;;3.67;3.27;;;;;;;0.47;87.53;99617.78;5114052;28;20038;-65
2021/11/24 05:46:38;;;;;;;2.40;1.67;;;;;;;0.44;87.31;99601.50;5093718;28;20569;-67
2021/11/24 05:49:06;;;;;;;3.23;2.00;;;;;;;0.53;86.93;99619.06;5081612;28;20281;-69
2021/11/24 05:51:32;;;;;;;3.10;2.80;;;;;;;0.61;87.26;99608.81;5111204;28;20346;-71
2021/11/24 05:53:57;;;;;;;4.77;2.57;;;;;;;0.58;87.43;99609.06;5113562;28;20262;-70
2021/11/24 05:56:23;;;;;;;3.90;2.30;;;;;;;0.55;87.17;99604.88;5113339;28;20159;-72
2021/11/24 05:58:48;;;;;;;4.33;2.60;;;;;;;0.66;87.35;99627.59;5095364;28;20032;-73
2021/11/24 06:01:14;;;;;;;2.43;2.03;;;;;;;0.60;87.35;99607.97;5113878;28;20538;-70
2021/11/24 06:03:39;;;;;;;2.47;2.07;;;;;;;0.65;87.30;99615.47;5113782;28;20032;-73
2021/11/24 06:06:05;;;;;;;2.30;1.90;;;;;;;0.73;87.32;99623.50;5114239;28;20057;-74
2021/11/24 06:08:30;;;;;;;2.33;1.83;;;;;;;0.48;87.54;99588.03;5114163;28;20039;-71
2021/11/24 06:10:56;;;;;;;3.80;2.13;;;;;;;0.80;87.70;99632.50;5096743;28;20042;-71
2021/11/24 06:13:22;;;;;;;8.20;2.20;;;;;;;0.71;87.37;99607.06;5118180;28;20027;-71
2021/11/24 06:15:47;;;;;;;3.67;1.97;;;;;;;0.81;87.74;99615.81;5118823;28;20027;-72
2021/11/24 06:18:13;;;;;;;8.17;2.57;;;;;;;0.86;87.30;99629.38;5101783;28;20046;-73
2021/11/24 06:20:39;;;;;;;2.63;2.13;;;;;;;0.98;87.58;99634.56;5118941;28;20402;-67
2021/11/24 06:23:06;;;;;;;2.73;2.30;;;;;;;0.71;87.87;99593.16;5114383;28;20513;-69
2021/11/24 06:25:32;;;;;;;2.50;2.10;;;;;;;1.05;87.68;99646.19;5115283;28;20261;-68
2021/11/24 06:27:58;;;;;;;5.00;2.53;;;;;;;0.99;87.25;99623.13;5120009;28;20655;-63
2021/11/24 06:30:24;;;;;;;4.27;2.20;;;;;;;1.11;87.41;99637.78;5117694;28;20470;-64
2021/11/24 06:32:49;;;;;;;6.13;3.40;;;;;;;1.12;87.46;99628.97;5117307;28;20499;-65
2021/11/24 06:35:16;;;;;;;4.30;2.60;;;;;;;1.02;87.27;99597.47;5114980;28;20867;-69
2021/11/24 06:37:42;;;;;;;3.90;2.50;;;;;;;1.16;87.34;99619.91;5116643;28;20465;-70
2021/11/24 06:40:09;;;;;;;5.07;2.30;;;;;;;1.13;88.27;99631.47;5112243;28;20268;-66
2021/11/24 06:42:35;;;;;;;4.53;2.63;;;;;;;1.06;88.13;99613.75;5112841;28;20288;-69
2021/11/24 06:45:01;;;;;;;3.67;2.50;;;;;;;1.21;88.11;99636.06;5112930;28;20330;-68
2021/11/24 06:47:28;;;;;;;5.80;3.07;;;;;;;1.25;88.27;99645.34;5113417;28;20028;-73
2021/11/24 06:49:54;;;;;;;6.40;2.93;;;;;;;1.30;88.39;99652.81;5094877;28;20281;-71
2021/11/24 06:52:19;;;;;;;5.90;2.43;;;;;;;1.32;88.68;99650.88;5118467;28;20043;-70
2021/11/24 06:54:45;;;;;;;9.10;2.63;;;;;;;1.29;88.71;99638.03;5112603;28;20035;-69
2021/11/24 06:57:11;;;;;;;7.23;2.87;;;;;;;1.36;88.68;99637.38;5112491;28;20035;-73
2021/11/24 06:59:36;;;;;;;12.60;2.90;;;;;;;1.33;88.67;99627.16;5113173;28;20036;-71
2021/11/24 07:02:02;;;;;;;5.30;2.30;;;;;;;1.44;88.59;99644.59;5077843;28;20573;-67
2021/11/24 07:04:28;;;;;;;9.67;3.20;;;;;;;1.50;88.93;99655.41;5112507;28;20545;-64
2021/11/24 07:06:53;;;;;;;6.33;2.83;;;;;;;1.45;88.47;99635.78;5112610;28;20032;-69
2021/11/24 07:09:19;;;;;;;6.13;3.73;;;;;;;1.50;88.35;99630.97;5093476;28;20039;-66
2021/11/24 07:11:45;;;;;;;7.23;2.63;;;;;;;1.51;88.74;99630.81;5112343;28;20059;-67
2021/11/24 07:14:10;;;;;;;8.67;2.77;;;;;;;1.64;88.31;99646.31;5112412;28;20394;-67
2021/11/24 07:20:36;;;;;;;6.80;2.67;;;;;;;1.66;88.20;99643.56;5010171;28;20045;-66
2021/11/24 07:23:03;;;;;;;8.27;3.53;;;;;;;1.65;88.47;99648.00;5009763;28;20316;-68
2021/11/24 07:25:30;;;;;;;5.87;3.03;;;;;;;1.62;88.37;99642.19;5071153;28;20277;-66
2021/11/24 07:27:55;;;;;;;6.40;3.23;;;;;;;1.57;88.43;99639.13;5112057;28;20440;-65
2021/11/24 07:30:22;;;;;;;9.97;3.63;;;;;;;1.42;88.50;99625.53;5112044;28;20253;-65
2021/11/24 07:32:48;;;;;;;11.63;3.23;;;;;;;1.37;88.52;99641.66;5111991;28;20035;-67
2021/11/24 07:35:14;;;;;;;9.27;3.30;;;;;;;1.30;89.23;99622.16;5112174;28;20333;-66
2021/11/24 07:37:39;;;;;;;9.47;2.40;;;;;;;1.45;89.22;99641.03;5111985;28;20042;-67
2021/11/24 07:40:07;;;;;;;7.67;2.80;;;;;;;1.48;89.29;99635.50;5111836;28;20066;-66
2021/11/24 07:42:33;;;;;;;6.72;2.55;;;;;;;1.55;88.68;99637.47;5112084;28;20123;-66
2021/11/24 07:44:59;;;;;;;11.87;3.33;;;;;;;1.42;88.69;99621.09;5114390;28;20074;-76
2021/11/24 07:47:25;;;;;;;11.37;3.00;;;;;;;1.44;88.60;99629.66;5118853;28;20040;-66
2021/11/24 07:49:51;;;;;;;11.87;3.47;;;;;;;1.51;88.92;99651.81;5097994;28;20286;-67
2021/11/24 07:52:17;;;;;;;6.37;3.30;;;;;;;1.51;89.14;99635.25;5115517;28;20525;-65
2021/11/24 07:54:43;;;;;;;12.97;3.60;;;;;;;1.62;88.92;99637.75;5116297;28;20258;-66
2021/11/24 07:57:09;;;;;;;9.10;3.87;;;;;;;1.73;88.48;99645.53;5115801;28;20032;-65
2021/11/24 07:59:36;;;;;;;10.37;4.17;;;;;;;1.77;88.04;99635.59;5113980;28;21056;-70
2021/11/24 08:02:02;;;;;;;8.13;2.70;;;;;;;1.92;88.49;99652.63;5114445;28;20027;-66
2021/11/24 08:04:28;;;;;;;8.13;3.47;;;;;;;1.98;87.42;99652.09;5113334;28;20311;-65
2021/11/24 08:06:59;;;;;;;9.80;3.20;;;;;;;1.99;87.25;99643.25;5093641;28;20273;-66
2021/11/24 08:09:25;;;;;;;10.63;2.90;;;;;;;2.00;87.29;99639.66;5111662;28;20253;-67
2021/11/24 08:11:50;;;;;;;7.73;2.87;;;;;;;2.01;86.96;99643.94;5111459;28;20291;-66
2021/11/24 08:14:16;;;;;;;6.07;3.13;;;;;;;1.96;86.52;99630.38;5112244;28;20038;-66
2021/11/24 08:16:42;;;;;;;8.20;2.30;;;;;;;2.13;86.72;99666.50;5112012;28;20042;-68
2021/11/24 08:19:07;;;;;;;5.77;2.53;;;;;;;2.12;86.36;99664.84;5110542;28;20349;-70
2021/11/24 08:21:33;;;;;;;11.70;3.67;;;;;;;2.12;86.50;99651.72;5097071;28;20547;-72
2021/11/24 08:23:58;;;;;;;5.27;2.83;;;;;;;2.17;86.32;99648.69;5095838;28;20066;-71
2021/11/24 08:26:25;;;;;;;7.87;3.17;;;;;;;2.01;86.62;99622.94;5096521;28;20081;-73
2021/11/24 08:28:50;;;;;;;7.20;2.13;;;;;;;2.02;85.82;99627.22;5096799;28;20031;-68
2021/11/24 08:31:16;;;;;;;12.87;4.77;;;;;;;1.98;85.84;99623.19;5094235;28;20269;-67
2021/11/24 08:33:41;;;;;;;7.20;2.67;;;;;;;2.37;85.37;99670.56;5076859;28;20032;-72
2021/11/24 08:36:07;;;;;;;6.63;3.10;;;;;;;2.30;85.38;99662.38;5095150;28;20043;-70
2021/11/24 08:38:33;;;;;;;8.53;3.03;;;;;;;2.39;85.29;99669.44;5095305;28;20044;-74
2021/11/24 08:40:58;;;;;;;8.03;2.93;;;;;;;2.39;85.11;99673.88;5095360;28;20498;-73
2021/11/24 08:43:24;;;;;;;7.57;3.17;;;;;;;2.10;84.72;99616.88;5094804;28;20089;-70
2021/11/24 08:45:50;;;;;;;5.90;1.90;;;;;;;2.44;84.39;99661.16;5095766;28;20051;-72
2021/11/24 08:48:15;;;;;;;11.73;2.70;;;;;;;2.46;84.53;99667.09;5095644;28;20475;-69
2021/11/24 08:50:41;;;;;;;11.70;3.63;;;;;;;2.57;84.28;99674.84;5096111;28;20410;-71
2021/11/24 08:53:07;;;;;;;5.43;2.20;;;;;;;2.54;83.59;99658.53;5094845;28;20510;-69
2021/11/24 08:55:32;;;;;;;9.90;2.63;;;;;;;2.58;83.22;99668.63;5076278;28;20495;-69
2021/11/24 08:57:58;;;;;;;4.67;2.23;;;;;;;2.60;82.81;99655.31;5094254;28;20032;-69
2021/11/24 09:00:25;;;;;;;5.33;1.90;;;;;;;2.62;82.77;99659.50;5094547;28;20525;-77
2021/11/24 09:02:50;;;;;;;5.63;2.70;;;;;;;2.77;82.42;99678.31;5094489;28;20040;-69
2021/11/24 09:05:18;;;;;;;6.80;2.83;;;;;;;2.66;82.51;99649.53;5094306;28;20361;-67
2021/11/24 09:07:46;;;;;;;8.10;2.63;;;;;;;2.64;82.49;99654.94;5094360;28;20471;-74
2021/11/24 09:10:13;;;;;;;10.43;2.60;;;;;;;2.81;82.38;99669.16;5094101;28;20772;-67
2021/11/24 09:12:39;;;;;;;10.50;2.53;;;;;;;2.79;82.21;99666.69;5095602;28;20127;-66
2021/11/24 09:15:06;;;;;;;9.20;3.10;;;;;;;2.80;82.27;99673.59;5094254;28;20354;-67
2021/11/24 09:17:32;;;;;;;5.37;1.87;;;;;;;2.81;82.22;99682.31;5076497;28;20050;-66
2021/11/24 09:19:57;;;;;;;6.97;2.43;;;;;;;2.81;82.43;99666.53;5113991;27;20262;-68
2021/11/24 09:22:23;;;;;;;4.57;2.00;;;;;;;2.92;82.25;99681.34;5114995;28;20406;-66
2021/11/24 09:24:54;;;;;;;7.10;3.03;;;;;;;2.69;81.94;99644.84;5114340;28;20099;-70
2021/11/24 09:27:29;;;;;;;8.07;1.77;;;;;;;2.83;82.52;99671.66;5096318;28;20273;-67
2021/11/24 09:29:56;;;;;;;3.80;2.20;;;;;;;2.33;81.95;99582.47;5114689;28;20250;-69
2021/11/24 09:32:23;;;;;;;9.70;2.37;;;;;;;2.46;81.84;99611.91;5114385;28;20282;-67
2021/11/24 09:34:49;;;;;;;5.17;1.90;;;;;;;2.90;82.07;99685.94;5114319;28;20317;-67
2021/11/24 09:37:14;;;;;;;3.70;2.17;;;;;;;2.90;82.74;99696.44;5114023;28;20258;-68
2021/11/24 09:39:40;;;;;;;7.37;3.17;;;;;;;2.84;82.65;99678.56;5114166;28;20023;-66
2021/11/24 09:42:06;;;;;;;4.07;2.03;;;;;;;2.64;82.77;99668.09;5114330;28;20390;-68
2021/11/24 09:44:32;;;;;;;6.60;2.40;;;;;;;2.53;82.71;99662.13;5114009;28;20612;-67
2021/11/24 09:46:59;;;;;;;3.83;1.83;;;;;;;2.70;82.12;99696.44;5114267;28;20297;-67
2021/11/24 09:49:26;;;;;;;6.37;2.97;;;;;;;2.70;82.07;99683.28;5113533;28;20066;-68
2021/11/24 09:51:53;;;;;;;4.23;1.80;;;;;;;2.15;81.83;99614.66;5113589;28;20682;-69
2021/11/24 09:54:19;;;;;;;3.60;2.00;;;;;;;2.64;82.14;99678.59;5114026;28;20360;-67
2021/11/24 09:56:46;;;;;;;5.17;2.20;;;;;;;2.68;81.99;99684.41;5114348;28;20305;-69
2021/11/24 09:59:13;;;;;;;7.27;2.17;;;;;;;2.72;81.98;99702.38;5114039;28;20253;-67
2021/11/24 10:01:39;;;;;;;2.93;1.90;;;;;;;2.76;81.49;99687.16;5113852;28;20268;-65
2021/11/24 10:04:05;;;;;;;3.57;1.77;;;;;;;2.75;81.20;99688.97;5095498;28;20257;-69
2021/11/24 10:06:34;;;;;;;3.03;1.63;;;;;;;2.82;81.08;99709.44;5113669;28;20281;-65
2021/11/24 10:08:59;;;;;;;3.50;2.28;;;;;;;2.88;81.23;99711.50;5113629;28;20265;-68
2021/11/24 10:11:25;;;;;;;6.47;2.83;;;;;;;2.84;80.88;99705.69;5113862;28;20042;-66
2021/11/24 10:13:51;;;;;;;3.70;2.50;;;;;;;2.97;80.30;99716.78;5114105;28;20379;-69
2021/11/24 10:16:22;;;;;;;2.43;1.40;;;;;;;3.02;80.13;99721.63;5114057;28;20128;-65
2021/11/24 10:19:11;;;;;;;3.53;1.67;;;;;;;2.91;79.59;99721.78;5114185;28;20084;-68
2021/11/24 10:21:54;;;;;;;2.47;1.43;;;;;;;2.71;79.54;99689.38;5114077;28;20265;-67
2021/11/24 10:24:27;;;;;;;1.80;1.57;;;;;;;2.93;79.55;99730.34;5113627;28;20292;-69
2021/11/24 10:26:53;;;;;;;5.20;1.50;;;;;;;3.04;77.99;99735.47;5113351;28;20373;-70
2021/11/24 10:29:19;;;;;;;4.80;1.63;;;;;;;3.14;77.76;99759.13;5113900;28;20356;-71
2021/11/24 10:31:52;;;;;;;3.90;2.00;;;;;;;3.08;77.60;99739.47;5113319;28;20027;-66
2021/11/24 10:34:21;;;;;;;4.50;1.57;;;;;;;2.85;77.54;99709.16;5113560;28;20114;-67
2021/11/24 10:37:11;;;;;;;4.00;1.88;;;;;;;3.03;77.37;99758.31;5115126;28;20270;-70
2021/11/24 10:39:45;;;;;;;4.70;1.60;;;;;;;2.98;78.19;99760.53;5113393;28;20038;-68
2021/11/24 10:42:12;;;;;;;4.13;1.63;;;;;;;2.91;78.01;99763.84;5095183;28;20368;-68
2021/11/24 10:44:41;;;;;;;2.47;1.40;;;;;;;2.75;78.08;99744.19;5112229;28;20615;-69
2021/11/24 10:47:07;;;;;;;4.07;1.60;;;;;;;2.86;78.46;99764.25;5094729;28;20269;-68
2021/11/24 10:49:35;;;;;;;2.97;1.73;;;;;;;2.93;78.51;99777.69;5094599;28;20048;-71
2021/11/24 10:52:35;;;;;;;2.87;1.70;;;;;;;2.93;78.90;99775.06;5112786;28;20100;-72
2021/11/24 10:55:06;;;;;;;2.37;1.43;;;;;;;2.87;78.91;99783.47;5080301;28;20321;-68
2021/11/24 10:57:37;;;;;;;4.73;1.80;;;;;;;2.83;78.82;99787.34;5112943;28;20258;-70
2021/11/24 11:00:09;;;;;;;2.10;1.60;;;;;;;2.82;78.58;99791.78;5112657;28;20706;-70
2021/11/24 11:02:39;;;;;;;3.37;1.33;;;;;;;2.63;78.17;99783.88;5112623;28;20304;-69
2021/11/24 11:05:11;;;;;;;5.43;1.47;;;;;;;2.53;78.19;99786.47;5112817;28;20275;-70
2021/11/24 11:07:58;;;;;;;4.47;2.00;;;;;;;2.68;78.38;99826.38;5112743;28;20290;-70
2021/11/24 11:10:37;;;;;;;2.10;1.27;;;;;;;2.74;76.91;99826.66;5112778;28;20735;-68
2021/11/24 11:13:03;;;;;;;;;;;;;;;2.78;76.95;99824.56;5112935;28;20358;-68
2021/11/24 11:15:40;;;;;;;2.90;1.50;;;;;;;2.70;77.26;99833.16;5112442;28;19915;-69
2021/11/24 11:18:28;;;;;;;4.07;1.40;;;;;;;2.66;76.69;99833.56;5112559;28;20126;-71
2021/11/24 11:21:02;;;;;;;1.75;1.17;;;;;;;2.48;77.23;99825.47;5112393;28;20261;-74
2021/11/24 11:23:30;;;;;;;3.70;1.97;;;;;;;2.48;77.02;99847.31;5112304;28;20050;-74
2021/11/24 11:26:01;;;;;;;3.13;1.90;;;;;;;2.42;77.04;99833.91;5112340;28;20402;-67
2021/11/24 11:28:54;;;;;;;5.10;2.73;;;;;;;2.47;76.33;99850.09;5112398;28;20459;-70
2021/11/24 11:31:22;;;;;;;7.13;4.20;;;;;;;2.29;76.57;99830.66;5112122;28;20811;-68
2021/11/24 11:33:51;;;;;;;3.73;2.20;;;;;;;2.22;76.73;99840.03;5112084;28;20273;-74
2021/11/24 11:36:17;;;;;;;2.43;1.60;;;;;;;2.35;77.00;99878.28;5094115;28;20265;-71
2021/11/24 11:38:48;;;;;;;6.53;2.00;;;;;;;2.32;77.17;99870.66;5115700;28;20261;-72
2021/11/24 11:41:23;;;;;;;5.37;3.50;;;;;;;2.12;76.62;99869.72;5121181;28;20249;-73